LLHA/HFA METAR and TAF weather

Enter ICAO airport designator
Station Type Date Time Source
LLHA METAR 2022/12/05 14:50 UTC NOAA

LLHA 051450Z 33006KT 9999 FEW035 20/13 Q1017


Station Type Date Time Source
LLHA Decoded METAR 2022/12/05 14:50 UTC NOAA

Sde-Haifa Haifa, Israel (LLHA) 32-48N 035-02E 8M
Dec 05, 2022 - 09:50 AM EST / 2022.12.05 1450 UTC
Wind: from the NNW (330 degrees) at 7 MPH (6 KT):0
Visibility: greater than 7 mile(s):0
Sky conditions: mostly clear
Temperature: 68 F (20 C)
Dew Point: 55 F (13 C)
Relative Humidity: 64%
Pressure (altimeter): 30.03 in. Hg (1017 hPa)
ob: LLHA 051450Z 33006KT 9999 FEW035 20/13 Q1017
cycle: 15

Station Type Date Time Source
LLHA TAF 2022/12/05 12:00 UTC NOAA

TAF LLHA 051113Z 0512/0612 34010KT 9999 SCT035 PROB40
TEMPO 0512/0515 -RA BKN030
BECMG 0515/0517 14005KT BKN030 PROB40
TEMPO 0523/0610 20012G24KT 5000 TSRA FEW025CB BKN030
FM061000 25008KT 9999 SCT035
TEMPO 0610/0612 27015G25KT 5000 TSRA FEW025CB BKN030 TX23/0512Z TN13/0604Z

Example: see airport list